Terminal Aerodrome Forecast
Issued by NWS Denver/Boulder, CO

Home | Current Version | Previous Version | Text Only | Print | Product List | Glossary On
Versions: 1 2 3 4 5 6 7 8 9 10 11 12 13 14 15 16 17 18 19 20 21 22 23 24 25 26 27 28 29 30 31 32 33 34 35 36 37 38 39 40 41 42 43 44 45 46 47 48 49 50
000
FTUS45 KBOU 182019 AAA
TAFDEN
TAF AMD
KDEN 182019Z 1820/1924 03009KT P6SM FEW080 SCT110
     FM182030 22012G20KT P6SM FEW080 SCT120
     FM182200 06010KT P6SM SCT080 BKN110
      TEMPO 1822/1901 VRB15G25KT
     FM190200 12009KT P6SM SCT080 BKN110
     FM190500 22011KT P6SM SCT110
     FM191600 14009KT P6SM FEW070 BKN200
     FM192100 12011KT P6SM SCT070 BKN200 PROB30 1921/1924 VRB20G30KT
      -TSRA BKN070CB=

USA.gov is the U.S. government's official web portal to all federal, state and local government web resources and services.